Time;durP1;ratioP1;P1;durP2;ratioP2;P2;SDS_P1;SDS_P2;PMS_P1;PMS_P2;Temp;Humidity;BMP_temperature;BMP_pressure;BME280_temperature;BME280_humidity;BME280_pressure;Samples;Min_cycle;Max_cycle;Signal;HPM_P1;HPM_P2
2021/07/28 00:00:54;;;;;;;18.23;11.85;;;;;;;23.87;63.78;100185.09;1649112;85;21143;-81
2021/07/28 00:03:21;;;;;;;14.40;10.78;;;;;;;23.81;63.30;100188.91;1654428;85;21016;-81
2021/07/28 00:05:47;;;;;;;20.17;13.00;;;;;;;23.78;63.49;100206.59;1654740;85;21690;-81
2021/07/28 00:08:13;;;;;;;21.57;13.38;;;;;;;23.70;64.44;100202.55;1658164;85;21075;-82
2021/07/28 00:10:39;;;;;;;15.35;11.55;;;;;;;23.67;64.64;100202.30;1660267;85;21089;-81
2021/07/28 00:13:06;;;;;;;18.92;11.70;;;;;;;23.64;65.05;100191.95;1657321;85;21069;-80
2021/07/28 00:15:32;;;;;;;17.73;12.82;;;;;;;23.64;64.76;100191.44;1658520;85;21022;-82
2021/07/28 00:18:02;;;;;;;22.45;13.30;;;;;;;23.65;65.46;100187.59;1656825;85;21093;-81
2021/07/28 00:23:13;;;;;;;14.47;11.85;;;;;;;23.60;64.83;100190.37;1659698;85;21531;-82
2021/07/28 00:23:16;;;;;;;15.63;12.82;;;;;;;23.62;64.93;100184.62;1651116;85;21586;-81
2021/07/28 00:25:45;;;;;;;15.08;12.15;;;;;;;23.69;64.41;100181.05;1654427;85;21082;-82
2021/07/28 00:28:12;;;;;;;14.83;11.88;;;;;;;23.74;64.20;100182.41;1652706;85;20971;-81
2021/07/28 00:30:41;;;;;;;19.85;12.90;;;;;;;23.68;63.97;100176.17;1657158;85;21094;-84
2021/07/28 00:33:08;;;;;;;18.82;12.10;;;;;;;23.62;63.66;100164.22;1652572;84;21072;-79
2021/07/28 00:35:34;;;;;;;12.33;11.15;;;;;;;23.60;63.72;100175.93;1657180;85;21066;-81
2021/07/28 00:38:06;;;;;;;17.60;11.50;;;;;;;23.63;63.10;100161.78;1654433;85;21095;-81
2021/07/28 00:40:33;;;;;;;20.72;12.63;;;;;;;23.68;62.85;100165.84;1661922;85;21105;-83
2021/07/28 00:43:14;;;;;;;13.88;11.40;;;;;;;23.71;62.96;100162.54;1657715;85;21166;-81
2021/07/28 00:45:42;;;;;;;18.85;12.25;;;;;;;23.49;63.46;100127.02;1692324;84;21618;-82
2021/07/28 00:48:10;;;;;;;17.30;10.70;;;;;;;23.65;63.22;100166.39;1689453;84;21893;-82
2021/07/28 00:50:37;;;;;;;12.15;11.00;;;;;;;23.64;63.56;100175.11;1694047;84;21018;-84
2021/07/28 00:53:04;;;;;;;12.82;11.10;;;;;;;23.70;63.46;100171.26;1691611;83;21013;-83
2021/07/28 00:55:31;;;;;;;19.37;12.10;;;;;;;23.75;63.63;100174.48;1696795;83;21461;-81
2021/07/28 00:58:01;;;;;;;14.73;12.05;;;;;;;23.70;63.94;100173.17;1694669;83;21622;-82
2021/07/28 01:00:28;;;;;;;16.48;11.00;;;;;;;23.67;63.87;100175.08;1695527;83;21089;-81
2021/07/28 01:02:55;;;;;;;11.83;10.63;;;;;;;23.70;64.05;100173.17;1699186;83;21041;-81
2021/07/28 01:05:22;;;;;;;19.12;11.70;;;;;;;23.75;63.76;100171.77;1671032;85;20995;-81
2021/07/28 01:07:49;;;;;;;20.52;10.60;;;;;;;23.78;63.24;100173.94;1658400;85;21138;-83
2021/07/28 01:10:15;;;;;;;13.62;10.30;;;;;;;23.76;63.64;100178.85;1678912;84;20989;-83
2021/07/28 01:12:44;;;;;;;13.48;10.95;;;;;;;23.72;63.48;100176.43;1684924;84;21681;-82
2021/07/28 01:15:20;;;;;;;12.13;10.40;;;;;;;23.75;63.83;100176.41;1641028;85;21198;-81
2021/07/28 01:17:39;;;;;;;12.55;8.80;;;;;;;23.78;63.92;100177.22;1679780;84;21190;-81
2021/07/28 01:20:54;;;;;;;20.30;12.43;;;;;;;23.87;63.83;100171.48;1789253;78;22399;-81
2021/07/28 01:23:26;;;;;;;12.30;10.78;;;;;;;23.81;63.97;100180.22;1732581;80;21350;-82
2021/07/28 01:25:54;;;;;;;11.53;10.43;;;;;;;23.80;63.90;100196.83;1719854;82;21489;-82
2021/07/28 01:28:25;;;;;;;11.35;10.18;;;;;;;23.79;64.18;100195.19;1708635;82;20953;-81
2021/07/28 01:31:11;;;;;;;16.73;11.12;;;;;;;23.79;64.63;100190.58;1719048;82;21827;-81
2021/07/28 01:33:41;;;;;;;16.77;10.23;;;;;;;23.83;64.89;100198.45;1716090;82;21568;-83
2021/07/28 01:36:16;;;;;;;10.98;9.88;;;;;;;23.86;64.78;100189.70;1708095;82;21044;-83
2021/07/28 01:38:45;;;;;;;14.25;10.38;;;;;;;23.82;65.05;100191.36;1718023;82;21095;-83
2021/07/28 01:41:12;;;;;;;12.50;10.82;;;;;;;23.81;65.13;100197.08;1708855;82;21687;-82
2021/07/28 01:43:42;;;;;;;13.90;11.75;;;;;;;23.67;65.73;100195.48;1695383;83;21020;-83
2021/07/28 01:46:09;;;;;;;17.42;11.80;;;;;;;23.55;65.72;100189.58;1679296;83;21040;-82
2021/07/28 01:48:35;;;;;;;19.40;11.83;;;;;;;23.54;65.73;100191.45;1687821;83;21667;-82
2021/07/28 01:51:02;;;;;;;14.05;11.53;;;;;;;23.46;65.38;100187.41;1687162;83;21517;-83
2021/07/28 01:53:30;;;;;;;20.37;12.95;;;;;;;23.45;65.61;100179.52;1700893;83;21033;-83
2021/07/28 01:55:58;;;;;;;18.10;12.75;;;;;;;23.41;65.71;100177.09;1688373;83;20958;-83
2021/07/28 01:58:24;;;;;;;16.02;12.45;;;;;;;23.38;65.78;100181.20;1679355;84;20997;-82
2021/07/28 02:00:51;;;;;;;14.78;11.68;;;;;;;23.42;65.85;100181.46;1650407;85;21137;-82
2021/07/28 02:03:19;;;;;;;17.25;12.60;;;;;;;23.44;65.85;100173.83;1661719;85;21059;-82
2021/07/28 02:05:45;;;;;;;13.98;11.68;;;;;;;23.37;65.69;100171.39;1650778;85;21187;-82
2021/07/28 02:08:15;;;;;;;13.58;11.95;;;;;;;23.37;65.80;100161.07;1615114;87;21083;-82
2021/07/28 02:10:46;;;;;;;14.03;11.73;;;;;;;23.35;66.00;100160.54;1648178;85;21038;-80
2021/07/28 02:13:15;;;;;;;17.05;11.20;;;;;;;23.35;65.93;100153.19;1628388;85;21705;-82
2021/07/28 02:15:42;;;;;;;16.85;11.75;;;;;;;23.35;66.11;100154.55;1630403;86;21005;-84
2021/07/28 02:18:09;;;;;;;13.35;12.23;;;;;;;23.28;66.57;100151.30;1608530;88;21061;-84
2021/07/28 02:20:37;;;;;;;16.82;12.00;;;;;;;23.18;66.79;100143.20;1604784;87;21136;-84
2021/07/28 02:23:04;;;;;;;14.03;11.55;;;;;;;23.10;66.82;100139.95;1632740;87;21049;-83
2021/07/28 02:25:31;;;;;;;13.72;10.88;;;;;;;23.10;66.81;100133.16;1621006;87;21552;-83
2021/07/28 02:27:57;;;;;;;14.03;11.45;;;;;;;23.06;66.62;100132.09;1655736;85;21046;-83
2021/07/28 02:30:23;;;;;;;16.85;11.85;;;;;;;23.03;66.93;100121.75;1655358;85;21548;-84
2021/07/28 02:32:51;;;;;;;13.85;11.35;;;;;;;23.00;66.98;100113.30;1648792;85;21186;-83
2021/07/28 02:35:23;;;;;;;11.78;10.43;;;;;;;22.95;66.87;100101.92;1658277;85;21219;-81
2021/07/28 02:37:48;;;;;;;12.85;11.63;;;;;;;23.07;66.42;100106.52;1668624;85;21593;-82
2021/07/28 02:40:18;;;;;;;15.93;12.40;;;;;;;23.16;66.07;100111.39;1663740;85;21091;-82
2021/07/28 02:42:46;;;;;;;14.90;11.45;;;;;;;23.14;66.38;100121.19;1654859;85;20991;-81
2021/07/28 02:45:12;;;;;;;14.63;11.33;;;;;;;23.15;66.48;100122.83;1679166;84;21086;-83
2021/07/28 02:47:39;;;;;;;12.07;10.88;;;;;;;23.20;66.39;100124.14;1682306;84;21153;-81
2021/07/28 02:50:06;;;;;;;13.38;10.63;;;;;;;23.29;66.02;100133.91;1680439;84;21034;-83
2021/07/28 02:52:33;;;;;;;12.30;11.20;;;;;;;23.37;65.84;100161.07;1680397;84;21149;-82
2021/07/28 02:55:05;;;;;;;15.10;11.15;;;;;;;23.41;66.35;100158.06;1672706;84;21051;-81
2021/07/28 02:57:32;;;;;;;15.45;11.40;;;;;;;23.35;66.73;100156.46;1680941;84;21134;-82
2021/07/28 02:59:58;;;;;;;14.03;10.50;;;;;;;23.36;66.60;100161.63;1686192;84;21023;-83
2021/07/28 03:02:24;;;;;;;15.00;10.68;;;;;;;23.36;66.58;100165.70;1668559;83;21038;-81
2021/07/28 03:04:50;;;;;;;23.98;12.37;;;;;;;23.35;66.50;100159.98;1674083;84;21078;-83
2021/07/28 03:07:16;;;;;;;12.68;11.35;;;;;;;23.38;66.80;100161.36;1677655;84;21058;-84
2021/07/28 03:09:43;;;;;;;13.80;11.35;;;;;;;23.29;67.27;100159.19;1676934;84;21065;-82
2021/07/28 03:12:09;;;;;;;19.55;11.57;;;;;;;23.25;67.03;100158.13;1653109;84;21048;-84
2021/07/28 03:14:35;;;;;;;19.98;11.53;;;;;;;23.29;66.64;100163.82;1594289;88;21078;-85
2021/07/28 03:17:02;;;;;;;16.55;11.08;;;;;;;23.31;66.36;100175.23;1604937;88;21124;-83
2021/07/28 03:19:28;;;;;;;12.20;10.18;;;;;;;23.33;66.51;100199.69;1603907;87;21100;-84
2021/07/28 03:21:55;;;;;;;13.60;10.40;;;;;;;23.41;66.81;100209.18;1594462;87;21326;-82
2021/07/28 03:24:21;;;;;;;16.75;11.22;;;;;;;23.51;66.85;100217.88;1652466;85;21106;-83
2021/07/28 03:26:50;;;;;;;13.20;11.10;;;;;;;23.58;66.47;100228.45;1655961;85;21081;-79
2021/07/28 03:29:16;;;;;;;18.17;11.30;;;;;;;23.65;66.37;100236.58;1655832;86;21099;-79
2021/07/28 03:31:42;;;;;;;13.30;11.57;;;;;;;23.69;66.29;100228.13;1655735;85;21066;-78
2021/07/28 03:34:08;;;;;;;11.05;9.70;;;;;;;23.74;66.20;100226.50;1657015;83;21030;-77
2021/07/28 03:36:34;;;;;;;11.40;10.00;;;;;;;23.76;66.12;100235.19;1700423;83;20985;-78
2021/07/28 03:39:00;;;;;;;13.98;9.98;;;;;;;23.84;66.11;100242.23;1688807;83;21497;-81
2021/07/28 03:41:26;;;;;;;15.32;10.63;;;;;;;23.86;65.85;100245.49;1690684;83;21055;-79
2021/07/28 03:43:52;;;;;;;13.35;10.78;;;;;;;23.86;65.84;100236.52;1688093;83;21062;-80
2021/07/28 03:46:19;;;;;;;12.03;9.98;;;;;;;23.82;66.17;100232.19;1649372;85;21042;-79
2021/07/28 03:48:46;;;;;;;19.87;11.20;;;;;;;23.77;66.95;100229.48;1658994;86;21090;-79
2021/07/28 03:51:12;;;;;;;17.73;10.93;;;;;;;23.76;67.93;100229.75;1661276;85;21548;-78
2021/07/28 03:53:40;;;;;;;12.93;10.05;;;;;;;23.77;67.29;100230.00;1659702;86;21523;-77
2021/07/28 03:56:06;;;;;;;15.83;10.13;;;;;;;23.76;67.49;100221.59;1630060;87;21062;-78
2021/07/28 03:58:32;;;;;;;11.68;10.40;;;;;;;23.71;67.16;100218.33;1610771;88;21015;-78
2021/07/28 04:00:58;;;;;;;14.20;10.53;;;;;;;23.64;67.25;100228.69;1603180;87;21170;-82
2021/07/28 04:03:24;;;;;;;13.20;10.45;;;;;;;23.59;67.53;100221.92;1587826;88;21084;-78
2021/07/28 04:05:54;;;;;;;12.50;10.98;;;;;;;23.58;68.08;100226.53;1580522;90;21030;-80
2021/07/28 04:08:21;;;;;;;10.55;9.48;;;;;;;23.63;67.46;100239.31;1589763;88;20975;-80
2021/07/28 04:10:48;;;;;;;17.77;11.68;;;;;;;23.65;68.63;100248.81;1617621;88;21200;-80
2021/07/28 04:13:15;;;;;;;19.67;12.43;;;;;;;23.62;70.13;100243.12;1618290;88;21570;-80
2021/07/28 04:15:43;;;;;;;15.08;11.90;;;;;;;23.46;70.46;100224.69;1623156;88;21237;-81
2021/07/28 04:18:09;;;;;;;16.57;11.80;;;;;;;23.23;71.38;100213.33;1619316;88;21594;-82
2021/07/28 04:20:35;;;;;;;13.55;12.25;;;;;;;22.98;72.29;100197.86;1618923;87;21031;-80
2021/07/28 04:23:01;;;;;;;17.65;11.15;;;;;;;22.76;73.74;100191.36;1630182;87;21108;-81
2021/07/28 04:25:26;;;;;;;;;;;;;;;22.61;74.46;100197.61;1632328;86;21014;-80
2021/07/28 04:27:52;;;;;;;20.10;12.80;;;;;;;22.47;75.03;100194.62;1644139;85;21017;-79
2021/07/28 04:30:20;;;;;;;15.68;12.15;;;;;;;22.32;75.13;100190.00;1618806;87;21039;-78
2021/07/28 04:32:47;;;;;;;17.95;13.53;;;;;;;22.25;76.67;100195.39;1627265;87;21094;-82
2021/07/28 04:35:15;;;;;;;18.48;12.95;;;;;;;22.18;78.56;100208.41;1622414;87;21046;-81
2021/07/28 04:37:41;;;;;;;18.50;14.93;;;;;;;22.10;78.87;100226.84;1616418;87;21158;-81
2021/07/28 04:40:11;;;;;;;20.92;15.45;;;;;;;22.00;81.04;100190.19;1623925;88;21153;-80
2021/07/28 04:42:37;;;;;;;14.63;13.30;;;;;;;21.86;80.83;100170.06;1591854;90;21605;-80
2021/07/28 04:45:06;;;;;;;14.65;13.20;;;;;;;21.74;81.00;100172.48;1617167;88;21108;-81
2021/07/28 04:47:34;;;;;;;23.42;14.28;;;;;;;21.70;80.73;100179.52;1609394;87;21086;-81
2021/07/28 04:50:00;;;;;;;19.62;13.32;;;;;;;21.79;81.21;100177.09;1624866;87;21059;-78
2021/07/28 04:52:26;;;;;;;;;;;;;;;21.80;81.20;100177.38;1629981;87;21044;-82
2021/07/28 04:54:53;;;;;;;12.18;10.93;;;;;;;21.58;80.78;100143.11;1627686;87;20131;-81
2021/07/28 04:57:20;;;;;;;11.95;10.72;;;;;;;21.69;80.69;100170.29;1627027;87;21003;-79
2021/07/28 04:59:46;;;;;;;12.45;11.35;;;;;;;21.70;80.30;100176.81;1626080;87;21095;-79
2021/07/28 05:02:13;;;;;;;13.13;11.83;;;;;;;21.82;81.92;100183.90;1627909;87;21524;-74
2021/07/28 05:04:39;;;;;;;12.53;11.10;;;;;;;21.91;82.01;100176.88;1624855;87;21019;-81
2021/07/28 05:07:06;;;;;;;19.65;14.13;;;;;;;22.04;81.66;100171.45;1618671;87;21506;-81
2021/07/28 05:09:32;;;;;;;16.32;13.98;;;;;;;22.39;82.54;100169.91;1619678;87;21010;-81
2021/07/28 05:11:59;;;;;;;14.55;12.30;;;;;;;22.78;82.24;100167.99;1617523;87;21069;-80
2021/07/28 05:14:25;;;;;;;17.70;12.80;;;;;;;23.21;81.25;100168.48;1613711;87;21087;-80
2021/07/28 05:16:51;;;;;;;14.25;11.12;;;;;;;23.85;77.47;100169.04;1616831;87;21194;-82
2021/07/28 05:19:17;;;;;;;19.77;13.10;;;;;;;24.23;74.64;100170.69;1615338;87;21058;-81
2021/07/28 05:21:43;;;;;;;13.10;11.18;;;;;;;24.41;73.58;100161.56;1623377;87;21008;-80
2021/07/28 05:24:14;;;;;;;16.45;14.03;;;;;;;24.66;73.99;100155.13;1636974;86;21054;-80
2021/07/28 05:26:41;;;;;;;12.00;10.80;;;;;;;25.08;73.28;100162.34;1616099;87;21559;-80
2021/07/28 05:29:09;;;;;;;17.32;11.57;;;;;;;25.13;71.80;100161.73;1648715;86;21891;-78
2021/07/28 05:31:37;;;;;;;16.23;13.68;;;;;;;25.10;70.40;100160.94;1651381;86;21632;-78
2021/07/28 05:34:03;;;;;;;18.02;13.10;;;;;;;24.83;70.70;100156.05;1634775;87;21543;-78
2021/07/28 05:36:31;;;;;;;18.95;14.47;;;;;;;24.60;71.85;100161.17;1620488;88;20988;-78
2021/07/28 05:38:57;;;;;;;14.60;13.10;;;;;;;24.55;73.25;100163.13;1619293;87;21043;-80
2021/07/28 05:41:23;;;;;;;16.12;13.90;;;;;;;24.49;74.05;100156.88;1621604;87;21026;-78
2021/07/28 05:43:50;;;;;;;15.25;12.28;;;;;;;24.59;74.58;100158.17;1621210;87;21151;-80
2021/07/28 05:46:16;;;;;;;16.35;12.30;;;;;;;24.85;74.16;100151.93;1621637;87;21156;-81
2021/07/28 05:48:42;;;;;;;12.13;11.03;;;;;;;25.32;73.46;100150.91;1622491;87;21054;-80
2021/07/28 05:51:09;;;;;;;14.98;10.70;;;;;;;25.88;71.46;100148.52;1622520;87;21079;-78
2021/07/28 05:53:37;;;;;;;16.60;10.63;;;;;;;26.42;67.00;100135.67;1615862;88;21348;-79
2021/07/28 05:56:05;;;;;;;10.58;9.25;;;;;;;26.90;64.57;100131.86;1618120;87;21134;-77
2021/07/28 05:58:31;;;;;;;15.18;10.45;;;;;;;27.28;61.41;100129.51;1608227;87;21085;-79
2021/07/28 06:00:57;;;;;;;18.62;9.63;;;;;;;27.52;58.38;100123.23;1612244;87;21061;-78
2021/07/28 06:03:24;;;;;;;14.95;9.80;;;;;;;27.69;59.90;100131.34;1622834;88;21163;-78
2021/07/28 06:05:50;;;;;;;11.85;9.98;;;;;;;27.84;59.31;100124.71;1627759;87;21105;-78
2021/07/28 06:08:19;;;;;;;11.60;9.43;;;;;;;28.06;57.83;100125.33;1623403;87;21545;-78
2021/07/28 06:10:46;;;;;;;13.18;9.80;;;;;;;28.22;57.01;100124.38;1621770;88;22257;-79
2021/07/28 06:13:13;;;;;;;11.50;9.25;;;;;;;28.40;57.17;100123.38;1609456;88;21068;-78
2021/07/28 06:15:40;;;;;;;12.98;10.28;;;;;;;28.77;57.31;100120.55;1611789;88;21091;-77
2021/07/28 06:18:06;;;;;;;12.18;8.98;;;;;;;29.14;57.18;100117.91;1606921;89;21151;-76
2021/07/28 06:20:32;;;;;;;15.38;8.43;;;;;;;29.49;55.25;100119.33;1612451;88;21186;-78
2021/07/28 06:22:58;;;;;;;11.03;6.67;;;;;;;29.78;51.48;100116.55;1629675;86;21138;-76
2021/07/28 06:25:24;;;;;;;7.78;6.30;;;;;;;29.78;48.15;100113.80;1649699;86;21035;-75
2021/07/28 06:27:51;;;;;;;12.23;7.10;;;;;;;29.53;49.27;100112.06;1646847;86;21174;-77
2021/07/28 06:30:17;;;;;;;10.13;6.45;;;;;;;29.38;50.46;100112.53;1647414;87;21046;-75
2021/07/28 06:32:44;;;;;;;13.45;7.15;;;;;;;29.45;49.62;100112.30;1648689;86;21034;-77
2021/07/28 06:35:21;;;;;;;9.83;6.35;;;;;;;29.56;49.84;100108.69;1646467;85;21046;-75
2021/07/28 06:37:47;;;;;;;17.75;6.90;;;;;;;28.86;48.87;99988.38;1645553;87;21539;-76
2021/07/28 06:40:14;;;;;;;17.10;7.42;;;;;;;29.56;49.84;100109.27;1633867;85;21072;-75
2021/07/28 06:42:40;;;;;;;12.90;8.13;;;;;;;29.60;49.72;100106.91;1639550;85;21065;-74
2021/07/28 06:45:10;;;;;;;13.35;8.08;;;;;;;29.87;50.83;100114.62;1649289;86;21662;-75
2021/07/28 06:47:36;;;;;;;14.75;7.08;;;;;;;30.13;49.80;100106.93;1634968;85;21007;-75
2021/07/28 06:50:03;;;;;;;10.28;6.78;;;;;;;30.36;49.55;100104.23;1638309;87;21023;-75
2021/07/28 06:52:30;;;;;;;11.73;7.60;;;;;;;30.52;49.54;100105.10;1646458;86;21089;-76
2021/07/28 06:54:57;;;;;;;10.25;7.12;;;;;;;30.63;47.63;100108.53;1633985;85;21062;-75
2021/07/28 06:57:24;;;;;;;17.55;6.62;;;;;;;30.76;47.37;100105.88;1620457;87;21074;-76
2021/07/28 06:59:52;;;;;;;10.40;6.55;;;;;;;30.82;47.82;100105.38;1633331;85;21046;-75
2021/07/28 07:02:19;;;;;;;8.65;6.22;;;;;;;30.68;47.51;100102.61;1651313;85;21120;-76
2021/07/28 07:04:46;;;;;;;10.23;6.22;;;;;;;30.54;47.58;100107.75;1648489;85;21153;-76
2021/07/28 07:07:12;;;;;;;7.70;6.58;;;;;;;30.55;48.03;100111.30;1651355;85;21034;-75
2021/07/28 07:09:39;;;;;;;8.30;5.78;;;;;;;30.59;47.91;100110.88;1650891;86;21186;-75
2021/07/28 07:12:05;;;;;;;9.30;5.65;;;;;;;30.55;47.13;100114.05;1645420;85;21165;-76
2021/07/28 07:14:31;;;;;;;12.05;7.17;;;;;;;30.50;47.83;100116.42;1651353;86;21079;-78
2021/07/28 07:16:58;;;;;;;8.25;6.22;;;;;;;30.64;47.41;100117.58;1649333;85;21125;-76
2021/07/28 07:19:25;;;;;;;6.55;5.03;;;;;;;30.66;45.47;100097.43;1641583;87;21086;-76
2021/07/28 07:21:52;;;;;;;10.13;5.95;;;;;;;30.90;44.44;100122.19;1666030;85;21673;-78
2021/07/28 07:24:18;;;;;;;13.68;5.83;;;;;;;30.88;44.66;100127.22;1663877;85;22104;-75
2021/07/28 07:26:46;;;;;;;6.40;5.08;;;;;;;30.91;44.24;100131.53;1657360;85;22105;-76
2021/07/28 07:29:12;;;;;;;9.10;5.70;;;;;;;30.93;43.99;100125.67;1658178;85;21037;-76
2021/07/28 07:31:41;;;;;;;7.12;5.40;;;;;;;30.93;44.21;100133.92;1659327;86;21620;-75
2021/07/28 07:34:08;;;;;;;11.35;4.87;;;;;;;31.05;44.49;100131.29;1657881;85;21058;-74
2021/07/28 07:36:36;;;;;;;7.37;6.12;;;;;;;31.19;44.63;100129.13;1660998;86;21630;-73
2021/07/28 07:39:04;;;;;;;8.65;5.55;;;;;;;31.25;44.44;100125.61;1656415;86;21711;-72
2021/07/28 07:41:31;;;;;;;8.25;6.65;;;;;;;31.12;44.72;100132.13;1640957;86;21073;-72
2021/07/28 07:43:59;;;;;;;5.58;4.95;;;;;;;30.96;44.99;100133.27;1640628;86;21015;-71
2021/07/28 07:46:31;;;;;;;9.68;6.15;;;;;;;30.65;45.91;100135.14;1666364;85;21076;-72
2021/07/28 07:48:57;;;;;;;8.30;5.83;;;;;;;30.24;46.83;100135.12;1670563;86;21212;-72
2021/07/28 07:51:27;;;;;;;6.75;5.65;;;;;;;29.92;48.05;100139.77;1662275;84;21327;-73
2021/07/28 07:53:52;;;;;;;11.30;6.28;;;;;;;29.71;48.96;100140.37;1658365;84;21100;-72
2021/07/28 07:56:22;;;;;;;7.40;6.50;;;;;;;29.55;49.32;100140.01;1667179;85;21144;-75
2021/07/28 07:58:50;;;;;;;7.72;5.67;;;;;;;29.40;49.71;100139.09;1653968;86;21152;-73
2021/07/28 08:01:16;;;;;;;9.45;6.05;;;;;;;29.26;50.47;100137.30;1671326;84;21089;-73
2021/07/28 08:03:43;;;;;;;10.28;6.47;;;;;;;29.22;50.63;100136.31;1668053;84;21116;-74
2021/07/28 08:06:13;;;;;;;12.60;6.47;;;;;;;29.25;50.05;100138.44;1669593;84;21121;-74
2021/07/28 08:08:39;;;;;;;10.72;7.30;;;;;;;29.17;49.39;100135.66;1670061;84;21060;-73
2021/07/28 08:11:12;;;;;;;13.70;6.55;;;;;;;28.89;50.46;100144.87;1644288;84;21556;-75
2021/07/28 08:13:40;;;;;;;16.15;6.87;;;;;;;28.81;51.33;100140.16;1667339;86;21742;-73
2021/07/28 08:16:16;;;;;;;12.88;7.45;;;;;;;28.73;51.00;100138.20;1669877;85;21009;-72
2021/07/28 08:18:43;;;;;;;11.43;6.85;;;;;;;28.64;51.67;100140.08;1670582;84;21606;-73
2021/07/28 08:21:10;;;;;;;12.40;8.33;;;;;;;28.67;52.33;100144.92;1671245;84;21022;-72
2021/07/28 08:23:41;;;;;;;11.30;7.45;;;;;;;28.76;51.27;100138.92;1669083;85;21006;-72
2021/07/28 08:26:08;;;;;;;9.88;8.20;;;;;;;28.84;51.96;100140.91;1660056;84;21048;-76
2021/07/28 08:28:34;;;;;;;9.93;7.53;;;;;;;28.90;51.58;100140.21;1669075;84;21018;-72
2021/07/28 08:31:00;;;;;;;12.90;7.22;;;;;;;28.90;51.96;100130.04;1667179;84;21069;-73
2021/07/28 08:33:31;;;;;;;16.17;7.62;;;;;;;28.88;51.69;100136.41;1670930;84;21057;-74
2021/07/28 08:35:59;;;;;;;8.53;7.72;;;;;;;28.84;51.95;100134.05;1664509;84;21074;-73
2021/07/28 08:38:26;;;;;;;11.45;8.00;;;;;;;28.84;52.44;100129.11;1659902;84;21580;-75
2021/07/28 08:41:15;;;;;;;9.58;7.72;;;;;;;28.89;52.05;100126.23;1659329;86;21092;-74
2021/07/28 08:43:39;;;;;;;12.75;8.43;;;;;;;28.98;51.89;100123.54;1666650;84;21018;-74
2021/07/28 08:46:08;;;;;;;10.60;8.30;;;;;;;29.10;51.93;100119.61;1668386;84;21018;-74
2021/07/28 08:48:38;;;;;;;21.17;8.45;;;;;;;29.23;51.32;100123.39;1649431;84;21095;-75
2021/07/28 08:51:19;;;;;;;10.23;8.48;;;;;;;29.30;50.81;100116.30;1651335;84;21012;-75
2021/07/28 08:53:58;;;;;;;15.63;8.20;;;;;;;29.35;50.79;100124.14;1659488;85;21057;-74
2021/07/28 08:56:29;;;;;;;10.38;7.40;;;;;;;29.39;50.29;100116.91;1670486;84;21006;-76
2021/07/28 08:58:56;;;;;;;12.18;9.05;;;;;;;29.44;50.18;100118.94;1666540;84;21113;-75
2021/07/28 09:01:22;;;;;;;15.05;8.73;;;;;;;29.49;50.36;100116.02;1665575;84;21150;-75
2021/07/28 09:03:49;;;;;;;8.98;7.85;;;;;;;29.51;50.35;100118.45;1668592;85;21536;-74
2021/07/28 09:06:31;;;;;;;10.25;8.85;;;;;;;29.54;50.49;100116.44;1667786;86;21081;-74
2021/07/28 09:09:02;;;;;;;15.70;8.03;;;;;;;29.61;50.41;100115.41;1670078;84;21034;-75
2021/07/28 09:11:28;;;;;;;10.40;9.40;;;;;;;29.57;48.95;100113.61;1668627;85;21082;-74
2021/07/28 09:14:18;;;;;;;9.25;8.33;;;;;;;29.47;49.58;100114.73;1664897;85;21059;-76
2021/07/28 09:16:44;;;;;;;8.60;7.62;;;;;;;29.47;50.36;100116.11;1665890;86;21100;-77
2021/07/28 09:19:10;;;;;;;9.95;7.60;;;;;;;29.50;49.48;100109.98;1635131;86;21094;-75
2021/07/28 09:21:37;;;;;;;14.75;8.63;;;;;;;29.60;49.56;100106.11;1668908;85;21015;-75
2021/07/28 09:24:15;;;;;;;10.70;7.80;;;;;;;29.74;49.47;100102.66;1654294;84;21036;-76
2021/07/28 09:26:48;;;;;;;10.00;7.65;;;;;;;29.87;48.78;100103.05;1666267;84;21400;-76
2021/07/28 09:29:25;;;;;;;10.40;8.23;;;;;;;30.00;48.83;100097.16;1662230;84;21049;-74
2021/07/28 09:32:02;;;;;;;8.93;7.22;;;;;;;30.14;47.83;100105.78;1661680;84;21092;-75
2021/07/28 09:34:33;;;;;;;12.35;7.15;;;;;;;30.23;47.11;100093.66;1664526;84;21001;-76
2021/07/28 09:37:04;;;;;;;8.53;7.03;;;;;;;30.29;46.49;100092.92;1665647;84;21081;-77
2021/07/28 09:39:36;;;;;;;10.88;7.40;;;;;;;30.26;46.91;100090.81;1670381;84;21174;-75
2021/07/28 09:42:19;;;;;;;7.50;6.60;;;;;;;30.26;46.70;100088.87;1661837;84;21113;-76
2021/07/28 09:44:48;;;;;;;11.78;6.78;;;;;;;30.30;45.69;100086.27;1663315;84;21132;-76
2021/07/28 09:47:20;;;;;;;6.58;5.95;;;;;;;30.32;46.08;100088.70;1601490;88;21142;-77
2021/07/28 09:50:03;;;;;;;12.18;6.83;;;;;;;30.36;45.85;100076.73;1614854;87;21019;-76
2021/07/28 09:52:35;;;;;;;10.88;7.10;;;;;;;30.41;45.75;100080.70;1614763;88;21102;-76
2021/07/28 09:55:26;;;;;;;9.50;7.08;;;;;;;30.39;46.18;100073.92;1606239;87;21500;-76
2021/07/28 09:57:57;;;;;;;8.13;6.12;;;;;;;30.34;46.37;100072.14;1610258;87;21054;-75
2021/07/28 10:00:29;;;;;;;9.10;6.58;;;;;;;30.39;46.21;100079.42;1615277;86;21395;-75
2021/07/28 10:03:00;;;;;;;9.20;6.12;;;;;;;30.49;46.00;100070.00;1657894;85;21514;-78
2021/07/28 10:05:30;;;;;;;11.68;7.05;;;;;;;30.56;45.60;100069.73;1662756;85;21253;-76
2021/07/28 10:08:00;;;;;;;7.75;6.35;;;;;;;30.60;45.40;100060.25;1657714;85;22288;-76
2021/07/28 10:10:31;;;;;;;9.43;6.87;;;;;;;30.64;45.05;100060.63;1645231;85;21095;-76
2021/07/28 10:12:58;;;;;;;7.33;6.70;;;;;;;30.72;44.91;100057.59;1663031;85;21113;-76
2021/07/28 10:15:26;;;;;;;7.00;5.65;;;;;;;30.81;44.33;100061.11;1656508;85;21299;-77
2021/07/28 10:17:58;;;;;;;7.53;5.97;;;;;;;30.89;43.95;100060.03;1656941;85;21081;-76
2021/07/28 10:20:25;;;;;;;10.45;6.95;;;;;;;30.94;43.69;100050.25;1641875;85;21098;-77
2021/07/28 10:22:53;;;;;;;8.05;6.17;;;;;;;30.94;43.63;100048.30;1651523;85;21022;-77
2021/07/28 10:25:21;;;;;;;9.10;5.62;;;;;;;30.96;43.70;100052.89;1662151;86;20990;-75
2021/07/28 10:27:50;;;;;;;8.95;5.78;;;;;;;31.01;43.34;100053.28;1651363;85;21543;-75
2021/07/28 10:30:22;;;;;;;6.20;5.60;;;;;;;31.05;43.09;100050.09;1654507;86;20976;-75
2021/07/28 10:32:49;;;;;;;9.50;5.65;;;;;;;31.07;42.70;100040.94;1652324;86;21046;-76
2021/07/28 10:35:22;;;;;;;11.85;5.80;;;;;;;31.05;42.91;100048.72;1651110;85;21562;-74
2021/07/28 10:37:55;;;;;;;12.88;5.80;;;;;;;31.14;42.88;100050.05;1649003;86;21028;-76
2021/07/28 10:40:31;;;;;;;10.10;5.12;;;;;;;31.24;42.45;100039.44;1659223;86;21003;-76
2021/07/28 10:43:02;;;;;;;4.67;4.28;;;;;;;31.35;41.33;100043.98;1662768;85;21037;-75
2021/07/28 10:45:56;;;;;;;6.65;5.33;;;;;;;31.39;41.53;100043.53;1661793;85;21102;-74
2021/07/28 10:48:49;;;;;;;7.08;5.22;;;;;;;31.42;41.52;100040.13;1661706;85;21069;-76
2021/07/28 10:51:41;;;;;;;7.47;5.35;;;;;;;31.41;41.91;100041.83;1660352;86;21027;-76
2021/07/28 10:54:10;;;;;;;10.50;5.37;;;;;;;31.41;42.19;100039.88;1622738;85;21631;-76
2021/07/28 10:57:06;;;;;;;7.83;5.35;;;;;;;31.18;42.01;100000.86;1649264;85;20966;-77
2021/07/28 10:59:42;;;;;;;8.18;5.33;;;;;;;31.34;41.98;100031.92;1656937;85;21102;-77
2021/07/28 11:02:09;;;;;;;;;;;;;;;31.27;42.07;100031.64;1654530;85;21532;-78
2021/07/28 11:04:35;;;;;;;;;;;;;;;31.20;42.18;100033.56;1663830;86;20139;-76
2021/07/28 11:07:02;;;;;;;8.63;5.17;;;;;;;31.15;42.03;100027.67;1658839;85;20231;-76
2021/07/28 11:09:29;;;;;;;9.73;5.10;;;;;;;31.21;42.43;100024.98;1653323;86;21305;-76
2021/07/28 11:11:58;;;;;;;6.50;4.70;;;;;;;31.24;41.60;100021.53;1661355;85;21022;-78
2021/07/28 11:14:26;;;;;;;6.78;4.97;;;;;;;31.23;41.87;100022.70;1656275;86;21034;-78
2021/07/28 11:16:54;;;;;;;7.62;5.53;;;;;;;31.25;41.77;100022.37;1655908;86;21092;-75
2021/07/28 11:19:21;;;;;;;9.43;4.92;;;;;;;31.26;41.79;100021.20;1650409;85;21018;-77
2021/07/28 11:21:49;;;;;;;7.30;4.45;;;;;;;31.30;41.79;100011.70;1650703;86;21034;-75
2021/07/28 11:24:20;;;;;;;5.67;4.58;;;;;;;31.28;42.03;100024.42;1648268;86;21503;-77